Terminal Aerodrome Forecast
Issued by NWS

Home | Current Version | Previous Version | Text Only | Print | Product List | Glossary On
Versions: 1 2 3 4 5 6 7 8 9 10 11 12 13 14 15 16 17 18 19 20 21
946
FTUS46 KLOX 272358
TAFPRB
TAF
KPRB 272358Z 2800/2824 21014KT P6SM SKC
     FM280300 30011KT P6SM SKC
     FM280800 30006KT P6SM SKC
     FM281200 VRB03KT 4SM BR VCFG OVC004
     FM281600 31006KT P6SM SKC
     FM282200 27012KT P6SM SKC=

USA.gov is the U.S. government's official web portal to all federal, state and local government web resources and services.